Time;durP1;ratioP1;P1;durP2;ratioP2;P2;SDS_P1;SDS_P2;PMS_P1;PMS_P2;Temp;Humidity;BMP_temperature;BMP_pressure;BME280_temperature;BME280_humidity;BME280_pressure;Samples;Min_cycle;Max_cycle;Signal;HPM_P1;HPM_P2
2022/12/15 00:41:06;;;;;;;27.30;13.48;;;;;;;;;;4988829;28;20046;-66
2022/12/15 00:43:33;;;;;;;23.80;13.15;;;;;;;;;;4989612;28;20380;-66
2022/12/15 00:48:45;;;;;;;25.92;12.75;;;;;;;;;;4988994;28;20054;-66
2022/12/15 00:51:11;;;;;;;25.70;13.13;;;;;;;;;;4990786;28;20127;-66
2022/12/15 01:21:07;;;;;;;27.08;12.68;;;;;;;;;;5032048;28;20049;-66
2022/12/15 01:23:33;;;;;;;23.70;12.20;;;;;;;;;;5015435;28;20116;-66
2022/12/15 01:25:59;;;;;;;23.73;12.40;;;;;;;;;;5031291;28;20117;-66
2022/12/15 01:28:25;;;;;;;26.05;13.55;;;;;;;;;;5031664;28;20041;-66
2022/12/15 01:30:52;;;;;;;24.60;13.20;;;;;;;;;;5031342;28;20742;-66
2022/12/15 01:33:18;;;;;;;25.13;13.45;;;;;;;;;;5031151;28;20037;-66
2022/12/15 01:35:44;;;;;;;26.75;13.15;;;;;;;;;;5014852;28;20387;-66
2022/12/15 01:38:10;;;;;;;21.67;12.50;;;;;;;;;;5031634;28;20046;-66
2022/12/15 01:40:43;;;;;;;23.40;12.38;;;;;;;;;;5014620;28;20056;-66
2022/12/15 01:43:14;;;;;;;20.85;11.57;;;;;;;;;;5031520;28;20456;-66
2022/12/15 01:45:46;;;;;;;22.60;12.25;;;;;;;;;;5031458;28;20041;-66
2022/12/15 01:48:13;;;;;;;22.45;12.63;;;;;;;;;;5030801;28;20041;-66
2022/12/15 01:50:41;;;;;;;23.60;12.05;;;;;;;;;;5031591;28;20057;-66
2022/12/15 01:53:08;;;;;;;20.88;11.13;;;;;;;;;;5031035;28;20042;-66
2022/12/15 01:55:34;;;;;;;26.33;13.63;;;;;;;;;;5030701;28;20037;-66
2022/12/15 01:58:02;;;;;;;25.02;12.52;;;;;;;;;;5014473;28;20080;-66
2022/12/15 02:00:29;;;;;;;23.85;13.55;;;;;;;;;;5030677;28;20102;-66
2022/12/15 02:02:56;;;;;;;23.48;12.98;;;;;;;;;;5029759;28;20044;-66
2022/12/15 02:05:22;;;;;;;24.23;13.38;;;;;;;;;;5031158;28;20030;-66
2022/12/15 02:07:48;;;;;;;23.38;13.15;;;;;;;;;;5030683;28;20041;-66
2022/12/15 02:10:14;;;;;;;24.15;12.77;;;;;;;;;;5030162;28;20098;-66
2022/12/15 02:12:45;;;;;;;24.88;12.45;;;;;;;;;;5030392;28;20041;-66
2022/12/15 02:15:30;;;;;;;23.47;12.67;;;;;;;;;;5030541;28;20478;-66
2022/12/15 02:18:06;;;;;;;22.60;12.75;;;;;;;;;;5030429;28;20092;-66
2022/12/15 02:20:35;;;;;;;24.42;13.02;;;;;;;;;;5030534;28;20602;-66
2022/12/15 02:23:04;;;;;;;21.08;12.23;;;;;;;;;;5014058;28;20049;-66
2022/12/15 02:25:43;;;;;;;27.38;12.82;;;;;;;;;;5030122;28;20100;-66
2022/12/15 02:28:17;;;;;;;24.88;13.18;;;;;;;;;;5030466;28;20080;-66
2022/12/15 02:30:45;;;;;;;23.48;12.05;;;;;;;;;;5030586;28;20730;-66
2022/12/15 02:33:11;;;;;;;22.70;12.35;;;;;;;;;;5030026;28;20103;-66
2022/12/15 02:35:52;;;;;;;23.95;12.52;;;;;;;;;;5013968;28;20145;-66
2022/12/15 02:38:31;;;;;;;21.13;12.25;;;;;;;;;;5013903;28;20096;-66
2022/12/15 02:40:58;;;;;;;21.45;13.23;;;;;;;;;;5029918;28;20057;-66
2022/12/15 02:43:25;;;;;;;21.90;11.63;;;;;;;;;;5030186;28;20049;-66
2022/12/15 02:45:54;;;;;;;22.88;12.68;;;;;;;;;;5029925;28;20037;-66
2022/12/15 02:48:25;;;;;;;26.17;12.93;;;;;;;;;;5013401;28;20045;-66
2022/12/15 02:51:00;;;;;;;26.77;13.17;;;;;;;;;;5030028;28;20041;-66
2022/12/15 02:53:32;;;;;;;25.30;13.00;;;;;;;;;;5029767;28;20288;-66
2022/12/15 02:56:04;;;;;;;26.08;14.10;;;;;;;;;;5030337;28;20623;-66
2022/12/15 02:58:30;;;;;;;21.63;12.65;;;;;;;;;;5013810;28;20053;-66
2022/12/15 03:00:59;;;;;;;25.75;13.70;;;;;;;;;;5029276;28;20156;-66
2022/12/15 03:03:26;;;;;;;21.10;11.75;;;;;;;;;;5029871;28;20044;-66
2022/12/15 03:05:53;;;;;;;27.67;13.60;;;;;;;;;;5029829;28;20387;-66
2022/12/15 03:08:20;;;;;;;21.15;13.40;;;;;;;;;;5029436;28;20053;-66
2022/12/15 03:10:46;;;;;;;23.23;12.32;;;;;;;;;;5029813;28;20578;-66
2022/12/15 03:13:13;;;;;;;24.35;12.75;;;;;;;;;;5012636;28;20052;-66
2022/12/15 03:15:39;;;;;;;24.88;12.82;;;;;;;;;;5029139;28;20088;-66
2022/12/15 03:18:05;;;;;;;22.30;12.65;;;;;;;;;;5029717;28;20717;-66
2022/12/15 03:20:31;;;;;;;19.23;11.50;;;;;;;;;;5029387;28;20048;-66
2022/12/15 03:22:57;;;;;;;22.92;12.30;;;;;;;;;;5029112;28;20447;-66
2022/12/15 03:25:23;;;;;;;22.90;13.48;;;;;;;;;;5029428;28;20082;-66
2022/12/15 03:27:49;;;;;;;24.05;13.00;;;;;;;;;;5029526;28;20041;-66
2022/12/15 03:30:15;;;;;;;23.67;12.75;;;;;;;;;;5029414;28;20041;-66
2022/12/15 03:32:41;;;;;;;21.15;11.80;;;;;;;;;;5029030;28;20041;-66
2022/12/15 03:35:07;;;;;;;23.92;12.55;;;;;;;;;;5029444;28;20052;-66
2022/12/15 03:37:33;;;;;;;20.50;12.13;;;;;;;;;;5029371;28;20099;-66
2022/12/15 03:39:59;;;;;;;23.88;12.52;;;;;;;;;;5028801;28;20480;-66
2022/12/15 03:45:10;;;;;;;26.92;12.30;;;;;;;;;;5028727;28;20045;-65
2022/12/15 03:47:40;;;;;;;26.83;12.55;;;;;;;;;;5029154;28;20037;-65
2022/12/15 03:50:06;;;;;;;22.13;11.57;;;;;;;;;;5029288;28;20037;-65
2022/12/15 03:52:32;;;;;;;21.35;12.35;;;;;;;;;;5028725;28;20041;-65
2022/12/15 03:54:58;;;;;;;21.98;12.15;;;;;;;;;;5028967;28;20045;-65
2022/12/15 03:57:24;;;;;;;23.10;12.38;;;;;;;;;;5029171;28;20164;-65
2022/12/15 03:59:50;;;;;;;22.50;12.60;;;;;;;;;;5028818;28;20072;-65
2022/12/15 04:02:16;;;;;;;19.98;11.68;;;;;;;;;;5028590;28;20443;-65
2022/12/15 04:04:42;;;;;;;24.17;11.95;;;;;;;;;;5012515;28;20399;-65
2022/12/15 04:07:08;;;;;;;18.92;10.90;;;;;;;;;;5029519;28;20703;-65
2022/12/15 04:09:35;;;;;;;21.83;11.23;;;;;;;;;;5028460;28;20454;-65
2022/12/15 04:12:02;;;;;;;21.77;11.40;;;;;;;;;;5029136;28;20057;-65
2022/12/15 04:14:29;;;;;;;25.10;11.43;;;;;;;;;;5028832;28;20089;-65
2022/12/15 04:16:55;;;;;;;21.48;11.45;;;;;;;;;;5012009;28;20084;-65
2022/12/15 04:22:06;;;;;;;19.33;11.30;;;;;;;;;;5028459;28;20046;-65
2022/12/15 05:33:19;;;;;;;22.40;11.38;;;;;;;;;;5031447;28;20076;-66
2022/12/15 05:35:45;;;;;;;23.38;12.05;;;;;;;;;;5031169;28;20034;-66
2022/12/15 05:38:11;;;;;;;22.83;12.15;;;;;;;;;;5014704;28;20110;-66
2022/12/15 05:40:37;;;;;;;24.00;11.32;;;;;;;;;;5031461;28;20041;-66
2022/12/15 05:43:03;;;;;;;24.20;11.77;;;;;;;;;;5031519;28;20468;-66
2022/12/15 05:45:29;;;;;;;21.13;11.90;;;;;;;;;;5031043;28;20052;-66
2022/12/15 05:47:56;;;;;;;21.15;11.18;;;;;;;;;;5031181;28;20384;-66
2022/12/15 05:50:22;;;;;;;18.38;11.18;;;;;;;;;;5014773;28;20033;-66
2022/12/15 05:52:48;;;;;;;22.63;12.25;;;;;;;;;;5030740;28;20380;-66
2022/12/15 05:55:15;;;;;;;21.35;11.02;;;;;;;;;;5031174;28;20046;-66
2022/12/15 05:57:41;;;;;;;19.25;11.30;;;;;;;;;;5031169;28;20048;-65
2022/12/15 06:00:08;;;;;;;18.05;10.52;;;;;;;;;;5030980;28;20038;-65
2022/12/15 06:02:34;;;;;;;19.45;10.85;;;;;;;;;;5030801;28;20033;-65
2022/12/15 06:05:00;;;;;;;19.05;11.65;;;;;;;;;;5025107;28;20029;-64
2022/12/15 06:07:26;;;;;;;22.42;12.05;;;;;;;;;;5030200;28;20037;-66
2022/12/15 06:09:53;;;;;;;18.55;11.32;;;;;;;;;;5028700;28;20057;-65
2022/12/15 06:12:18;;;;;;;22.13;12.10;;;;;;;;;;5030286;28;20041;-65
2022/12/15 06:14:45;;;;;;;20.55;12.38;;;;;;;;;;5012964;28;20116;-65
2022/12/15 06:17:12;;;;;;;21.60;11.45;;;;;;;;;;5011129;28;20045;-65
2022/12/15 06:19:38;;;;;;;20.33;11.00;;;;;;;;;;5011916;28;20069;-65
2022/12/15 06:22:04;;;;;;;25.27;11.02;;;;;;;;;;5011603;28;20046;-65
2022/12/15 06:24:30;;;;;;;25.08;12.50;;;;;;;;;;5012158;28;20096;-66
2022/12/15 06:26:56;;;;;;;21.80;12.15;;;;;;;;;;5026701;28;20064;-66
2022/12/15 06:29:22;;;;;;;22.98;11.18;;;;;;;;;;5023079;28;20042;-67
2022/12/15 06:31:48;;;;;;;23.55;11.27;;;;;;;;;;5010069;28;20038;-66
2022/12/15 06:34:15;;;;;;;21.60;12.27;;;;;;;;;;5010406;28;20112;-66
2022/12/15 06:36:42;;;;;;;26.27;11.85;;;;;;;;;;5010742;28;20473;-65
2022/12/15 06:39:10;;;;;;;26.00;11.52;;;;;;;;;;5009398;28;20037;-62
2022/12/15 06:41:36;;;;;;;22.70;11.13;;;;;;;;;;5017278;28;20042;-65
2022/12/15 06:44:03;;;;;;;21.42;10.90;;;;;;;;;;5010436;28;20060;-65
2022/12/15 06:46:29;;;;;;;18.92;10.82;;;;;;;;;;5010253;28;20045;-65
2022/12/15 06:48:56;;;;;;;22.67;11.02;;;;;;;;;;5027963;28;20881;-64
2022/12/15 06:51:22;;;;;;;22.35;10.80;;;;;;;;;;5010383;28;20104;-64
2022/12/15 06:53:48;;;;;;;18.40;9.98;;;;;;;;;;5010909;28;20310;-67
2022/12/15 06:56:19;;;;;;;17.27;10.38;;;;;;;;;;4993629;28;20049;-68
2022/12/15 06:58:49;;;;;;;22.30;10.40;;;;;;;;;;4992440;28;20056;-67
2022/12/15 07:01:15;;;;;;;21.83;10.75;;;;;;;;;;5009466;28;20042;-67
2022/12/15 07:03:42;;;;;;;19.90;10.63;;;;;;;;;;5009434;28;20042;-65
2022/12/15 07:06:10;;;;;;;19.98;11.07;;;;;;;;;;5009077;28;20042;-65
2022/12/15 07:08:36;;;;;;;20.95;10.50;;;;;;;;;;5009711;28;20162;-67
2022/12/15 07:11:02;;;;;;;21.67;10.43;;;;;;;;;;5013046;28;20045;-66
2022/12/15 07:13:28;;;;;;;18.88;10.55;;;;;;;;;;5008635;28;20141;-64
2022/12/15 07:15:58;;;;;;;22.10;11.20;;;;;;;;;;5008978;28;20137;-64
2022/12/15 07:18:24;;;;;;;16.75;10.45;;;;;;;;;;5010714;28;20141;-65
2022/12/15 07:20:51;;;;;;;21.95;10.73;;;;;;;;;;5010185;28;20780;-66
2022/12/15 07:23:17;;;;;;;20.58;10.73;;;;;;;;;;5011376;28;20034;-64
2022/12/15 07:25:43;;;;;;;20.02;10.82;;;;;;;;;;5013609;28;20076;-67
2022/12/15 07:28:10;;;;;;;19.48;11.50;;;;;;;;;;5009178;28;20117;-64
2022/12/15 07:30:36;;;;;;;15.93;10.13;;;;;;;;;;5010250;28;20652;-63
2022/12/15 07:33:03;;;;;;;17.58;10.45;;;;;;;;;;5010638;28;20491;-64
2022/12/15 07:35:29;;;;;;;19.50;10.48;;;;;;;;;;5009995;28;20049;-63
2022/12/15 07:37:55;;;;;;;22.60;11.45;;;;;;;;;;5012253;28;20042;-64
2022/12/15 07:40:22;;;;;;;19.00;11.48;;;;;;;;;;5010860;28;20095;-65
2022/12/15 07:42:48;;;;;;;20.30;11.02;;;;;;;;;;5008294;28;20054;-65
2022/12/15 07:45:14;;;;;;;21.58;11.65;;;;;;;;;;5010803;28;20041;-65
2022/12/15 07:47:40;;;;;;;19.50;12.27;;;;;;;;;;5009953;28;20038;-64
2022/12/15 07:50:07;;;;;;;24.02;12.45;;;;;;;;;;5009718;28;20042;-66
2022/12/15 07:52:33;;;;;;;19.90;11.63;;;;;;;;;;5009067;28;20049;-65
2022/12/15 07:54:59;;;;;;;21.38;10.95;;;;;;;;;;5009376;28;20050;-65
2022/12/15 07:57:25;;;;;;;17.95;11.27;;;;;;;;;;5018604;28;20077;-63
2022/12/15 07:59:51;;;;;;;19.20;11.15;;;;;;;;;;5009488;28;20546;-63
2022/12/15 08:02:17;;;;;;;18.08;10.95;;;;;;;;;;5009523;28;20061;-65
2022/12/15 08:04:43;;;;;;;26.10;11.25;;;;;;;;;;5009643;28;20122;-64
2022/12/15 08:07:09;;;;;;;17.27;10.13;;;;;;;;;;5009718;28;20117;-64
2022/12/15 08:09:36;;;;;;;18.25;10.07;;;;;;;;;;5012466;28;20037;-64
2022/12/15 08:12:02;;;;;;;19.40;10.57;;;;;;;;;;5009365;28;20066;-64
2022/12/15 08:14:28;;;;;;;18.90;11.38;;;;;;;;;;5009085;28;20065;-61
2022/12/15 08:16:54;;;;;;;17.23;10.63;;;;;;;;;;5009806;28;20483;-63
2022/12/15 08:19:20;;;;;;;19.02;10.73;;;;;;;;;;5009293;28;20365;-63
2022/12/15 08:21:47;;;;;;;19.17;9.55;;;;;;;;;;5008829;28;20562;-62
2022/12/15 08:24:14;;;;;;;22.25;10.20;;;;;;;;;;5007214;28;20556;-63
2022/12/15 08:26:40;;;;;;;17.55;10.65;;;;;;;;;;5008289;28;20045;-62
2022/12/15 08:29:10;;;;;;;17.38;9.55;;;;;;;;;;5005207;28;20056;-61
2022/12/15 08:31:36;;;;;;;19.02;10.65;;;;;;;;;;5005999;28;20042;-60
2022/12/15 08:34:03;;;;;;;18.83;10.50;;;;;;;;;;5005634;28;20041;-60
2022/12/15 08:36:29;;;;;;;20.33;10.80;;;;;;;;;;5008294;28;20038;-60
2022/12/15 08:38:56;;;;;;;17.05;10.35;;;;;;;;;;5009919;28;20046;-61
2022/12/15 08:41:27;;;;;;;16.42;10.30;;;;;;;;;;5008287;28;20645;-63
2022/12/15 08:43:53;;;;;;;15.60;10.30;;;;;;;;;;5006101;28;20100;-62
2022/12/15 08:46:21;;;;;;;21.98;11.18;;;;;;;;;;5007002;28;20401;-65
2022/12/15 08:48:47;;;;;;;20.08;10.07;;;;;;;;;;5021602;28;20041;-63
2022/12/15 08:51:14;;;;;;;17.05;10.18;;;;;;;;;;5005814;28;20133;-64
2022/12/15 08:53:40;;;;;;;17.73;9.60;;;;;;;;;;5005082;28;20076;-64
2022/12/15 08:56:07;;;;;;;18.75;9.82;;;;;;;;;;5003241;28;20070;-63
2022/12/15 08:58:33;;;;;;;16.63;10.10;;;;;;;;;;5004073;28;20428;-64
2022/12/15 09:01:04;;;;;;;20.02;10.25;;;;;;;;;;5006972;28;20526;-65
2022/12/15 09:03:30;;;;;;;19.20;10.63;;;;;;;;;;5007104;28;20045;-65
2022/12/15 09:05:56;;;;;;;17.00;10.15;;;;;;;;;;5006353;28;20037;-65
2022/12/15 09:08:23;;;;;;;19.20;9.27;;;;;;;;;;5001494;28;20475;-65
2022/12/15 09:10:49;;;;;;;20.13;9.75;;;;;;;;;;5008677;28;20045;-64
2022/12/15 09:13:15;;;;;;;17.70;9.80;;;;;;;;;;5009478;28;20046;-63
2022/12/15 09:15:42;;;;;;;15.63;9.10;;;;;;;;;;5009983;28;20046;-64
2022/12/15 09:18:08;;;;;;;16.45;10.23;;;;;;;;;;5004767;28;20049;-64
2022/12/15 09:20:34;;;;;;;17.25;9.63;;;;;;;;;;5010200;28;20041;-63
2022/12/15 09:23:00;;;;;;;23.30;10.15;;;;;;;;;;5009522;28;20048;-64
2022/12/15 09:25:26;;;;;;;18.67;10.63;;;;;;;;;;5012504;28;20129;-64
2022/12/15 09:27:52;;;;;;;19.42;10.85;;;;;;;;;;5010732;28;20046;-64
2022/12/15 09:30:18;;;;;;;19.65;9.93;;;;;;;;;;5009889;28;20041;-63
2022/12/15 09:32:44;;;;;;;19.70;10.65;;;;;;;;;;5010905;28;20125;-64
2022/12/15 09:35:10;;;;;;;19.58;10.27;;;;;;;;;;5007630;28;20050;-62
2022/12/15 09:37:36;;;;;;;21.17;10.43;;;;;;;;;;5010128;28;20084;-62
2022/12/15 09:40:05;;;;;;;17.77;10.10;;;;;;;;;;5010501;28;20080;-63
2022/12/15 09:42:31;;;;;;;17.70;10.23;;;;;;;;;;5008416;28;20053;-64
2022/12/15 09:45:01;;;;;;;17.80;10.20;;;;;;;;;;5011185;28;20037;-64
2022/12/15 09:47:44;;;;;;;15.32;9.00;;;;;;;;;;5011500;28;20081;-64
2022/12/15 09:50:13;;;;;;;16.98;9.30;;;;;;;;;;5010588;28;20069;-66
2022/12/15 09:52:42;;;;;;;17.50;9.70;;;;;;;;;;5010096;28;20045;-65
2022/12/15 09:55:17;;;;;;;16.25;9.65;;;;;;;;;;5009133;28;20073;-66
2022/12/15 09:57:54;;;;;;;22.92;10.77;;;;;;;;;;5014060;28;20049;-66
2022/12/15 10:00:23;;;;;;;18.02;9.88;;;;;;;;;;5008727;28;20088;-67
2022/12/15 10:03:12;;;;;;;16.13;9.10;;;;;;;;;;5007217;28;20064;-65
2022/12/15 10:05:50;;;;;;;17.05;9.75;;;;;;;;;;5003118;28;20041;-64
2022/12/15 10:08:16;;;;;;;17.35;9.27;;;;;;;;;;5009895;28;20052;-65
2022/12/15 10:10:54;;;;;;;17.40;8.80;;;;;;;;;;5009391;28;20468;-63
2022/12/15 10:13:39;;;;;;;14.95;9.05;;;;;;;;;;5007244;28;20057;-65
2022/12/15 10:16:13;;;;;;;16.65;8.85;;;;;;;;;;5004195;28;20038;-67
2022/12/15 10:19:02;;;;;;;17.35;8.52;;;;;;;;;;5010426;28;20042;-65
2022/12/15 10:21:28;;;;;;;17.23;8.60;;;;;;;;;;5008682;28;20046;-63
2022/12/15 10:23:58;;;;;;;15.70;8.57;;;;;;;;;;5008678;28;20042;-63
2022/12/15 10:26:26;;;;;;;16.10;9.32;;;;;;;;;;5012048;28;20076;-66
2022/12/15 10:28:52;;;;;;;15.27;8.85;;;;;;;;;;5008349;28;20042;-64
2022/12/15 10:31:33;;;;;;;16.30;9.00;;;;;;;;;;5011305;28;20450;-64
2022/12/15 10:34:04;;;;;;;15.07;8.93;;;;;;;;;;5008247;28;20045;-66
2022/12/15 10:36:30;;;;;;;17.65;9.00;;;;;;;;;;5007894;28;20805;-65
2022/12/15 10:38:56;;;;;;;18.40;9.30;;;;;;;;;;5008841;28;20037;-64
2022/12/15 10:41:25;;;;;;;18.30;8.05;;;;;;;;;;5008938;28;20121;-65
2022/12/15 10:43:52;;;;;;;15.98;9.02;;;;;;;;;;5006877;28;20088;-64
2022/12/15 10:46:21;;;;;;;16.58;9.60;;;;;;;;;;5011119;28;20041;-65
2022/12/15 10:48:49;;;;;;;16.98;9.13;;;;;;;;;;5017847;28;20088;-64
2022/12/15 10:51:27;;;;;;;17.20;9.70;;;;;;;;;;5007100;28;20034;-65
2022/12/15 10:54:08;;;;;;;17.25;9.07;;;;;;;;;;5004211;28;20081;-65
2022/12/15 10:56:45;;;;;;;15.07;9.07;;;;;;;;;;5006252;28;20057;-66
2022/12/15 10:59:22;;;;;;;17.65;8.88;;;;;;;;;;5008078;28;20381;-66
2022/12/15 11:01:48;;;;;;;15.45;8.65;;;;;;;;;;5012222;28;20048;-66
2022/12/15 11:04:31;;;;;;;15.27;9.25;;;;;;;;;;5007616;28;20041;-64
2022/12/15 11:06:58;;;;;;;15.52;8.98;;;;;;;;;;5007727;28;20037;-64
2022/12/15 11:09:27;;;;;;;18.40;9.27;;;;;;;;;;5009403;28;20116;-64
2022/12/15 11:14:45;;;;;;;15.38;9.88;;;;;;;;;;5005737;28;20086;-64
2022/12/15 11:17:15;;;;;;;17.67;9.65;;;;;;;;;;5006074;28;20053;-65
2022/12/15 11:19:51;;;;;;;15.48;8.93;;;;;;;;;;5007578;28;20068;-65
2022/12/15 11:22:36;;;;;;;17.95;9.75;;;;;;;;;;5006099;28;22030;-65
2022/12/15 11:25:14;;;;;;;18.67;9.98;;;;;;;;;;5003716;28;20041;-64
2022/12/15 11:27:42;;;;;;;17.10;9.63;;;;;;;;;;5010947;28;20056;-64
2022/12/15 11:30:21;;;;;;;15.30;9.95;;;;;;;;;;5007336;28;20451;-65
2022/12/15 11:32:48;;;;;;;19.20;10.00;;;;;;;;;;5002391;28;20089;-64
2022/12/15 11:35:15;;;;;;;14.82;9.15;;;;;;;;;;5006279;28;20180;-64
2022/12/15 11:37:42;;;;;;;19.67;9.70;;;;;;;;;;5008304;28;20064;-64
2022/12/15 11:40:14;;;;;;;15.60;8.02;;;;;;;;;;5007453;28;20811;-64
2022/12/15 11:42:52;;;;;;;13.00;7.63;;;;;;;;;;5008246;28;20103;-64
2022/12/15 11:45:18;;;;;;;13.85;7.50;;;;;;;;;;5008721;28;20045;-63
2022/12/15 11:47:49;;;;;;;19.20;7.93;;;;;;;;;;5008391;28;20038;-63
2022/12/15 11:50:24;;;;;;;20.08;9.02;;;;;;;;;;5006460;28;20042;-63
2022/12/15 11:53:03;;;;;;;12.77;8.65;;;;;;;;;;5008009;28;20049;-64
2022/12/15 11:55:32;;;;;;;18.10;7.70;;;;;;;;;;5014311;28;20058;-64
2022/12/15 11:58:01;;;;;;;19.20;7.65;;;;;;;;;;5008773;28;20121;-63
2022/12/15 12:00:30;;;;;;;12.73;7.05;;;;;;;;;;5007595;28;20052;-64
2022/12/15 12:02:56;;;;;;;14.48;7.90;;;;;;;;;;5005381;28;20034;-64
2022/12/15 12:05:41;;;;;;;20.92;8.90;;;;;;;;;;5011193;28;20113;-64
2022/12/15 12:08:07;;;;;;;14.73;7.57;;;;;;;;;;5009458;28;20045;-64
2022/12/15 12:10:33;;;;;;;17.17;8.60;;;;;;;;;;5009770;28;20038;-65
2022/12/15 12:13:17;;;;;;;17.85;8.43;;;;;;;;;;5008423;28;20702;-64
2022/12/15 12:15:56;;;;;;;14.35;7.47;;;;;;;;;;5009721;28;20092;-65
2022/12/15 12:18:28;;;;;;;13.68;8.27;;;;;;;;;;5008183;28;20060;-65
2022/12/15 12:20:54;;;;;;;;;;;;;;;;;;5003865;28;20038;-63
2022/12/15 12:23:39;;;;;;;17.13;7.78;;;;;;;;;;5007838;28;19989;-63
2022/12/15 12:26:11;;;;;;;13.93;7.63;;;;;;;;;;5011825;28;20041;-63
2022/12/15 12:28:51;;;;;;;11.13;7.18;;;;;;;;;;5007791;28;20053;-62
2022/12/15 12:31:38;;;;;;;11.18;7.28;;;;;;;;;;5006270;28;20077;-63
2022/12/15 12:34:10;;;;;;;12.65;6.80;;;;;;;;;;5009731;28;20538;-64
2022/12/15 12:36:36;;;;;;;12.88;6.88;;;;;;;;;;5001343;28;20050;-63
2022/12/15 12:39:03;;;;;;;14.20;7.90;;;;;;;;;;5001673;28;20133;-64
2022/12/15 12:41:45;;;;;;;17.35;9.30;;;;;;;;;;5003413;28;20045;-64
2022/12/15 12:44:25;;;;;;;15.85;7.80;;;;;;;;;;5001122;28;20078;-65
2022/12/15 12:46:53;;;;;;;18.88;7.60;;;;;;;;;;5003856;28;20057;-65
2022/12/15 12:49:31;;;;;;;14.43;7.63;;;;;;;;;;5000913;28;20047;-65
2022/12/15 12:52:00;;;;;;;12.20;6.63;;;;;;;;;;5009945;28;20408;-66
2022/12/15 12:54:32;;;;;;;17.02;6.95;;;;;;;;;;5006138;28;20038;-65
2022/12/15 12:56:58;;;;;;;;;;;;;;;;;;5011743;28;20045;-65
2022/12/15 12:59:27;;;;;;;16.40;6.97;;;;;;;;;;5010969;28;20466;-66
2022/12/15 13:01:54;;;;;;;11.35;7.13;;;;;;;;;;5010650;28;20177;-65
2022/12/15 13:04:37;;;;;;;16.30;7.38;;;;;;;;;;5007248;28;20113;-66
2022/12/15 13:07:04;;;;;;;14.25;6.80;;;;;;;;;;5003546;28;20461;-65
2022/12/15 13:09:36;;;;;;;16.05;6.72;;;;;;;;;;5007133;28;20780;-65
2022/12/15 13:12:03;;;;;;;12.05;6.65;;;;;;;;;;5008627;28;20160;-65
2022/12/15 13:14:38;;;;;;;15.27;7.40;;;;;;;;;;5005922;28;20085;-65
2022/12/15 13:17:14;;;;;;;14.35;7.43;;;;;;;;;;5010454;28;20568;-66
2022/12/15 13:19:58;;;;;;;14.00;7.05;;;;;;;;;;5014013;28;20038;-66
2022/12/15 13:22:24;;;;;;;12.82;7.13;;;;;;;;;;5008038;28;20044;-66
2022/12/15 13:24:50;;;;;;;10.32;7.30;;;;;;;;;;5009967;28;20516;-64
2022/12/15 13:27:18;;;;;;;15.40;7.40;;;;;;;;;;5011522;28;20739;-65
2022/12/15 13:30:01;;;;;;;13.48;7.95;;;;;;;;;;5008841;28;20046;-64
2022/12/15 13:32:27;;;;;;;;;;;;;;;;;;5009839;28;20149;-64
2022/12/15 13:34:53;;;;;;;13.60;7.40;;;;;;;;;;5006730;28;20615;-63
2022/12/15 13:37:38;;;;;;;16.00;8.32;;;;;;;;;;5009425;28;20680;-63
2022/12/15 13:40:24;;;;;;;10.75;6.40;;;;;;;;;;5011106;28;20029;-63
2022/12/15 13:42:57;;;;;;;14.43;7.38;;;;;;;;;;5017801;28;20767;-63
2022/12/15 13:45:42;;;;;;;11.68;7.65;;;;;;;;;;5003847;28;21444;-63
2022/12/15 13:48:27;;;;;;;16.85;8.60;;;;;;;;;;5012198;28;20482;-64
2022/12/15 13:51:02;;;;;;;15.70;7.90;;;;;;;;;;5008769;28;20742;-63
2022/12/15 13:53:31;;;;;;;17.70;8.10;;;;;;;;;;5009298;28;20423;-64
2022/12/15 13:56:05;;;;;;;14.13;8.38;;;;;;;;;;5010325;28;20041;-63
2022/12/15 13:58:38;;;;;;;14.35;8.32;;;;;;;;;;5009136;28;20072;-63
2022/12/15 14:01:17;;;;;;;17.73;9.40;;;;;;;;;;5008977;28;20046;-63
2022/12/15 14:03:56;;;;;;;17.63;9.07;;;;;;;;;;5009624;28;20434;-62
2022/12/15 14:06:22;;;;;;;16.60;8.80;;;;;;;;;;5005660;28;20049;-63
2022/12/15 14:08:48;;;;;;;19.83;9.73;;;;;;;;;;5006786;28;20059;-63
2022/12/15 14:11:21;;;;;;;14.75;9.13;;;;;;;;;;5010492;28;20091;-62
2022/12/15 14:13:48;;;;;;;17.42;8.65;;;;;;;;;;5010690;28;20107;-63
2022/12/15 14:16:14;;;;;;;16.42;9.05;;;;;;;;;;5009866;28;20057;-62
2022/12/15 14:18:43;;;;;;;22.75;9.75;;;;;;;;;;5009702;28;20084;-61
2022/12/15 14:21:20;;;;;;;16.75;9.30;;;;;;;;;;5013707;28;20092;-61
2022/12/15 14:23:46;;;;;;;17.95;9.77;;;;;;;;;;5010101;28;20413;-62
2022/12/15 14:26:13;;;;;;;19.00;10.00;;;;;;;;;;5010868;28;20033;-63
2022/12/15 14:28:41;;;;;;;15.27;9.70;;;;;;;;;;5005531;28;20073;-65
2022/12/15 14:31:19;;;;;;;21.85;10.38;;;;;;;;;;5005547;28;20046;-61
2022/12/15 14:33:47;;;;;;;20.77;10.73;;;;;;;;;;5012719;28;20084;-63
2022/12/15 14:36:14;;;;;;;15.48;9.90;;;;;;;;;;5005389;28;20546;-63
2022/12/15 14:38:44;;;;;;;17.33;10.27;;;;;;;;;;5009275;28;20073;-63
2022/12/15 14:41:19;;;;;;;17.30;10.35;;;;;;;;;;5011736;28;20164;-64
2022/12/15 14:43:45;;;;;;;18.95;10.68;;;;;;;;;;5005991;28;20042;-61
2022/12/15 14:46:15;;;;;;;17.73;11.23;;;;;;;;;;5010199;28;20689;-62
2022/12/15 14:49:01;;;;;;;16.77;10.43;;;;;;;;;;5009601;28;20046;-63
2022/12/15 14:51:28;;;;;;;20.70;11.25;;;;;;;;;;5007280;28;20038;-63
2022/12/15 14:53:55;;;;;;;19.15;11.30;;;;;;;;;;5010660;28;20034;-62
2022/12/15 14:56:21;;;;;;;20.20;11.68;;;;;;;;;;5008839;28;20041;-62
2022/12/15 14:58:58;;;;;;;20.42;12.75;;;;;;;;;;5007384;28;20477;-60
2022/12/15 15:01:49;;;;;;;17.67;11.90;;;;;;;;;;5006925;28;20042;-62
2022/12/15 15:04:27;;;;;;;21.58;13.68;;;;;;;;;;4998600;28;20038;-62
2022/12/15 15:06:58;;;;;;;21.85;13.95;;;;;;;;;;5010336;28;20081;-64
2022/12/15 15:09:28;;;;;;;20.13;12.32;;;;;;;;;;5014655;28;20034;-63
2022/12/15 15:12:04;;;;;;;26.45;13.85;;;;;;;;;;5026165;28;20503;-62
2022/12/15 15:14:54;;;;;;;23.98;13.65;;;;;;;;;;5010057;28;20496;-63
2022/12/15 15:17:20;;;;;;;21.10;12.50;;;;;;;;;;5003675;28;20574;-62
2022/12/15 15:19:49;;;;;;;25.70;13.63;;;;;;;;;;5010669;28;20045;-63
2022/12/15 15:22:24;;;;;;;23.73;14.35;;;;;;;;;;5009394;28;20052;-63
2022/12/15 15:24:51;;;;;;;27.33;15.02;;;;;;;;;;5010631;28;20180;-63
2022/12/15 15:27:23;;;;;;;27.98;13.98;;;;;;;;;;5029457;28;20047;-62
2022/12/15 15:29:49;;;;;;;21.77;13.20;;;;;;;;;;5010411;28;20045;-62
2022/12/15 15:32:17;;;;;;;23.98;13.68;;;;;;;;;;5010759;28;20459;-62
2022/12/15 15:34:46;;;;;;;22.15;13.43;;;;;;;;;;5010449;28;20049;-63
2022/12/15 15:37:20;;;;;;;24.73;14.45;;;;;;;;;;5009964;28;20037;-63
2022/12/15 15:39:53;;;;;;;23.40;13.35;;;;;;;;;;5010145;28;20053;-63
2022/12/15 15:42:19;;;;;;;25.10;15.10;;;;;;;;;;5010509;28;20049;-63
2022/12/15 15:44:45;;;;;;;20.88;13.88;;;;;;;;;;5009454;28;20085;-63
2022/12/15 15:47:18;;;;;;;24.85;14.40;;;;;;;;;;5010298;28;20768;-63
2022/12/15 15:49:45;;;;;;;24.20;14.23;;;;;;;;;;5010278;28;20037;-63
2022/12/15 15:52:13;;;;;;;22.73;14.50;;;;;;;;;;5009334;28;20044;-63
2022/12/15 15:54:39;;;;;;;26.60;15.68;;;;;;;;;;5028831;28;20053;-64
2022/12/15 15:57:05;;;;;;;25.02;15.30;;;;;;;;;;5000006;28;20038;-64
2022/12/15 15:59:31;;;;;;;24.60;15.90;;;;;;;;;;5010125;28;20049;-64
2022/12/15 16:01:58;;;;;;;29.65;17.02;;;;;;;;;;5010722;28;20096;-64
2022/12/15 16:04:25;;;;;;;26.80;16.88;;;;;;;;;;5010691;28;20117;-64
2022/12/15 16:06:51;;;;;;;28.63;16.33;;;;;;;;;;5010511;28;20049;-64
2022/12/15 16:09:17;;;;;;;29.38;17.20;;;;;;;;;;5015871;28;20048;-64
2022/12/15 16:11:44;;;;;;;30.55;17.90;;;;;;;;;;5030811;28;20076;-64
2022/12/15 16:14:15;;;;;;;29.95;18.25;;;;;;;;;;5029788;28;20049;-64
2022/12/15 16:16:41;;;;;;;30.17;18.08;;;;;;;;;;5030144;28;20045;-64
2022/12/15 16:19:07;;;;;;;32.28;19.08;;;;;;;;;;5030556;28;20045;-65
2022/12/15 16:21:34;;;;;;;34.70;19.40;;;;;;;;;;5030698;28;20037;-64
2022/12/15 16:24:05;;;;;;;31.60;19.25;;;;;;;;;;5034585;28;20066;-64
2022/12/15 16:26:32;;;;;;;30.65;19.48;;;;;;;;;;5034671;28;20045;-64
2022/12/15 16:28:58;;;;;;;32.70;19.27;;;;;;;;;;5034061;28;20065;-64
2022/12/15 16:31:29;;;;;;;30.10;19.00;;;;;;;;;;5034404;28;20034;-64
2022/12/15 16:33:55;;;;;;;31.05;19.30;;;;;;;;;;5034559;28;20091;-64
2022/12/15 16:36:21;;;;;;;28.80;19.50;;;;;;;;;;5033994;28;20052;-64
2022/12/15 16:38:47;;;;;;;34.55;19.50;;;;;;;;;;5034127;28;20037;-64
2022/12/15 16:41:15;;;;;;;29.92;18.73;;;;;;;;;;5034255;28;20044;-65
2022/12/15 16:43:41;;;;;;;31.25;19.10;;;;;;;;;;5033932;28;20341;-64
2022/12/15 16:46:10;;;;;;;31.10;20.02;;;;;;;;;;5034308;28;20045;-64
2022/12/15 16:48:36;;;;;;;28.70;18.65;;;;;;;;;;5034203;28;20079;-64
2022/12/15 16:51:05;;;;;;;34.42;19.85;;;;;;;;;;5033429;28;20041;-64
2022/12/15 16:53:32;;;;;;;29.85;19.05;;;;;;;;;;5034170;28;20073;-64
2022/12/15 16:56:00;;;;;;;36.67;21.15;;;;;;;;;;5033890;28;20044;-64
2022/12/15 16:58:27;;;;;;;32.13;19.23;;;;;;;;;;5033433;28;20052;-64
2022/12/15 17:00:53;;;;;;;32.58;19.48;;;;;;;;;;5033541;28;20080;-64
2022/12/15 17:03:24;;;;;;;33.00;20.23;;;;;;;;;;5033824;28;20041;-64